createdAt,value
2023-04-17T00:00:18.690Z,100972.91
2023-04-17T00:02:50.854Z,100970.98
2023-04-17T00:05:23.538Z,100971.84
2023-04-17T00:07:55.617Z,100973.95
2023-04-17T00:10:26.989Z,100971.67
2023-04-17T00:12:58.881Z,100974.58
2023-04-17T00:15:30.802Z,100970.38
2023-04-17T00:18:02.796Z,100974.98
2023-04-17T00:20:34.385Z,100974.30
2023-04-17T00:23:05.851Z,100967.56
2023-04-17T00:25:37.132Z,100970.05
2023-04-17T00:28:09.526Z,100967.59
2023-04-17T00:30:40.924Z,100969.89
2023-04-17T00:33:12.637Z,100965.98
2023-04-17T00:35:44.780Z,100968.55
2023-04-17T00:38:16.740Z,100963.64
2023-04-17T00:40:49.241Z,100963.67
2023-04-17T00:43:22.244Z,100962.00
2023-04-17T00:45:54.422Z,100960.85
2023-04-17T00:48:26.731Z,100955.48
2023-04-17T00:51:02.408Z,100958.20
2023-04-17T00:53:34.843Z,100959.30
2023-04-17T00:56:07.659Z,100961.71
2023-04-17T00:58:41.541Z,100961.27
2023-04-17T01:01:13.456Z,100958.14
2023-04-17T01:03:45.426Z,100957.73
2023-04-17T01:06:18.415Z,100948.54
2023-04-17T01:08:50.944Z,100945.45
2023-04-17T01:11:22.573Z,100943.98
2023-04-17T01:13:54.419Z,100948.04
2023-04-17T01:16:26.041Z,100949.15
2023-04-17T01:18:57.925Z,100943.09
2023-04-17T01:21:31.195Z,100949.88
2023-04-17T01:24:05.548Z,100947.90
2023-04-17T01:26:37.474Z,100946.02
2023-04-17T01:29:09.925Z,100949.50
2023-04-17T01:31:42.806Z,100940.29
2023-04-17T01:34:14.614Z,100944.02
2023-04-17T01:36:46.649Z,100947.24
2023-04-17T01:39:18.805Z,100945.06
2023-04-17T01:41:51.666Z,100942.98
2023-04-17T01:44:23.971Z,100941.23
2023-04-17T01:46:56.773Z,100939.62
2023-04-17T01:49:28.842Z,100942.04
2023-04-17T01:52:00.431Z,100939.91
2023-04-17T01:54:31.898Z,100935.15
2023-04-17T01:57:03.351Z,100935.86
2023-04-17T01:59:35.109Z,100935.36
2023-04-17T02:02:07.327Z,100934.20
2023-04-17T02:04:39.360Z,100928.55
2023-04-17T02:07:12.401Z,100929.10
2023-04-17T02:09:44.349Z,100933.92
2023-04-17T02:12:16.779Z,100928.77
2023-04-17T02:14:48.954Z,100923.99
2023-04-17T02:17:22.219Z,100926.91
2023-04-17T02:19:53.373Z,100928.40
2023-04-17T02:22:24.619Z,100925.52
2023-04-17T02:24:56.391Z,100928.16
2023-04-17T02:27:27.969Z,100922.58
2023-04-17T02:29:59.710Z,100925.15
2023-04-17T02:32:31.884Z,100926.32
2023-04-17T02:35:03.840Z,100924.30
2023-04-17T02:37:36.670Z,100922.58
2023-04-17T02:40:11.709Z,100922.01
2023-04-17T02:42:43.214Z,100927.85
2023-04-17T02:45:15.113Z,100929.35
2023-04-17T02:47:47.430Z,100923.48
2023-04-17T02:50:19.526Z,100925.73
2023-04-17T02:53:11.051Z,100931.84
2023-04-17T02:55:42.885Z,100927.34
2023-04-17T02:58:14.722Z,100925.48
2023-04-17T03:00:46.306Z,100927.11
2023-04-17T03:03:22.455Z,100931.13
2023-04-17T03:05:54.059Z,100925.38
2023-04-17T03:08:25.663Z,100925.31
2023-04-17T03:10:58.481Z,100923.59
2023-04-17T03:13:30.861Z,100918.63
2023-04-17T03:16:04.832Z,100913.48
2023-04-17T03:18:40.612Z,100920.87
2023-04-17T03:21:13.699Z,100919.41
2023-04-17T03:23:45.497Z,100922.39
2023-04-17T03:26:17.480Z,100922.73
2023-04-17T03:28:48.790Z,100922.92
2023-04-17T03:31:24.434Z,100923.74
2023-04-17T03:33:56.268Z,100925.08
2023-04-17T03:36:28.881Z,100923.95
2023-04-17T03:39:01.520Z,100923.70
2023-04-17T03:41:32.776Z,100921.50
2023-04-17T03:44:05.426Z,100928.67
2023-04-17T03:46:37.409Z,100922.41
2023-04-17T03:49:08.768Z,100922.17
2023-04-17T03:51:42.867Z,100931.26
2023-04-17T03:54:18.594Z,100930.85
2023-04-17T03:56:51.212Z,100929.30
2023-04-17T03:59:23.778Z,100931.71
2023-04-17T04:01:56.858Z,100930.91
2023-04-17T04:04:29.177Z,100930.59
2023-04-17T04:07:08.991Z,100931.40
2023-04-17T04:09:40.435Z,100934.20
2023-04-17T04:12:13.262Z,100931.05
2023-04-17T04:14:46.262Z,100935.31
2023-04-17T04:17:18.742Z,100935.90
2023-04-17T04:19:51.353Z,100937.53
2023-04-17T04:22:24.032Z,100935.23
2023-04-17T04:24:57.788Z,100936.34
2023-04-17T04:27:37.930Z,100938.55
2023-04-17T04:30:13.189Z,100939.40
2023-04-17T04:32:46.865Z,100939.91
2023-04-17T04:35:19.176Z,100940.39
2023-04-17T04:37:51.368Z,100939.22
2023-04-17T04:40:22.948Z,100944.98
2023-04-17T04:42:56.043Z,100942.25
2023-04-17T04:45:33.772Z,100945.00
2023-04-17T04:48:06.083Z,100948.18
2023-04-17T04:50:37.950Z,100953.23
2023-04-17T04:53:09.783Z,100956.30
2023-04-17T04:55:47.027Z,100957.59
2023-04-17T04:58:18.817Z,100952.80
2023-04-17T05:00:50.836Z,100955.16
2023-04-17T05:03:28.109Z,100958.03
2023-04-17T05:06:00.493Z,100958.31
2023-04-17T05:08:36.750Z,100960.84
2023-04-17T05:11:13.741Z,100959.52
2023-04-17T05:13:45.308Z,100965.34
2023-04-17T05:16:21.862Z,100965.02
2023-04-17T05:18:53.741Z,100962.43
2023-04-17T05:21:31.658Z,100961.84
2023-04-17T05:24:06.162Z,100965.61
2023-04-17T05:26:38.251Z,100963.50
2023-04-17T05:29:10.823Z,100965.17
2023-04-17T05:31:43.055Z,100967.22
2023-04-17T05:34:25.030Z,100965.39
2023-04-17T05:36:56.926Z,100961.80
2023-04-17T05:39:29.650Z,100964.09
2023-04-17T05:42:01.588Z,100959.79
2023-04-17T05:44:34.395Z,100961.29
2023-04-17T05:47:06.684Z,100956.33
2023-04-17T05:49:38.286Z,100960.21
2023-04-17T05:52:10.738Z,100961.95
2023-04-17T05:54:45.281Z,100962.04
2023-04-17T05:57:17.048Z,100966.13
2023-04-17T05:59:49.606Z,100964.10
2023-04-17T06:02:20.831Z,100969.16
2023-04-17T06:04:53.177Z,100973.65
2023-04-17T06:07:25.034Z,100975.49
2023-04-17T06:09:58.322Z,100975.17
2023-04-17T06:12:30.068Z,100978.77
2023-04-17T06:15:05.653Z,100984.71
2023-04-17T06:17:38.679Z,100988.73
2023-04-17T06:20:12.771Z,100984.48
2023-04-17T06:22:47.155Z,100985.02
2023-04-17T06:25:19.282Z,100988.08
2023-04-17T06:27:51.130Z,100987.59
2023-04-17T06:30:23.291Z,100984.54
2023-04-17T06:32:57.610Z,100981.88
2023-04-17T06:35:29.882Z,100985.48
2023-04-17T06:38:16.705Z,100984.62
2023-04-17T06:40:49.470Z,100981.76
2023-04-17T06:43:22.296Z,100985.81
2023-04-17T06:45:54.415Z,100988.14
2023-04-17T06:48:26.158Z,100985.13
2023-04-17T06:50:58.520Z,100984.79
2023-04-17T06:53:29.819Z,100984.16
2023-04-17T06:56:01.410Z,100980.52
2023-04-17T06:58:33.356Z,100985.06
2023-04-17T07:01:05.189Z,100985.88
2023-04-17T07:03:39.350Z,100984.92
2023-04-17T07:06:12.268Z,100987.96
2023-04-17T07:08:43.872Z,100986.74
2023-04-17T07:11:15.215Z,100989.22
2023-04-17T07:13:46.533Z,100987.73
2023-04-17T07:16:18.244Z,100988.88
2023-04-17T07:18:49.818Z,100991.16
2023-04-17T07:21:21.582Z,100986.39
2023-04-17T07:23:53.200Z,100992.36
2023-04-17T07:26:24.583Z,100989.80
2023-04-17T07:28:56.149Z,100992.88
2023-04-17T07:31:28.735Z,100993.70
2023-04-17T07:34:00.785Z,100995.55
2023-04-17T07:36:32.409Z,100996.84
2023-04-17T07:39:03.918Z,100998.98
2023-04-17T07:41:35.891Z,101002.71
2023-04-17T07:44:08.463Z,100995.84
2023-04-17T07:46:40.274Z,101000.47
2023-04-17T07:49:12.761Z,101002.12
2023-04-17T07:51:44.686Z,101010.05
2023-04-17T07:54:16.625Z,101008.02
2023-04-17T07:56:49.533Z,101011.79
2023-04-17T07:59:21.436Z,101012.57
2023-04-17T08:01:54.060Z,101013.70
2023-04-17T08:04:26.153Z,101019.81
2023-04-17T08:06:57.915Z,101021.50
2023-04-17T08:09:30.309Z,101024.67
2023-04-17T08:12:02.218Z,101027.14
2023-04-17T08:14:33.956Z,101030.90
2023-04-17T08:17:07.850Z,101027.28
2023-04-17T08:19:40.051Z,101029.90
2023-04-17T08:22:11.509Z,101028.09
2023-04-17T08:24:43.719Z,101029.84
2023-04-17T08:27:16.068Z,101031.50
2023-04-17T08:29:47.765Z,101031.77
2023-04-17T08:32:19.322Z,101033.08
2023-04-17T08:34:51.176Z,101034.27
2023-04-17T08:37:22.677Z,101031.70
2023-04-17T08:39:55.049Z,101034.70
2023-04-17T08:42:27.204Z,101040.58
2023-04-17T08:45:05.622Z,101036.27
2023-04-17T08:47:37.606Z,101042.48
2023-04-17T08:50:14.204Z,101038.08
2023-04-17T08:52:47.397Z,101040.57
2023-04-17T08:55:20.981Z,101043.20
2023-04-17T08:58:04.310Z,101041.53
2023-04-17T09:00:38.077Z,101050.84
2023-04-17T09:03:13.763Z,101046.74
2023-04-17T09:05:46.569Z,101046.92
2023-04-17T09:08:20.846Z,101045.77
2023-04-17T09:10:54.590Z,101043.70
2023-04-17T09:13:29.242Z,101042.95
2023-04-17T09:16:13.495Z,101041.77
2023-04-17T09:18:46.199Z,101052.73
2023-04-17T09:21:19.964Z,101044.25
2023-04-17T09:23:53.295Z,101045.38
2023-04-17T09:26:26.409Z,101040.55
2023-04-17T09:29:09.356Z,101036.39
2023-04-17T09:31:42.553Z,101040.71
2023-04-17T09:34:16.752Z,101026.83
2023-04-17T09:36:47.950Z,101030.87
2023-04-17T09:39:24.628Z,101025.54
2023-04-17T09:42:04.321Z,101022.75
2023-04-17T09:44:37.158Z,101028.40
2023-04-17T09:47:11.399Z,101028.00
2023-04-17T09:49:49.780Z,101019.09
2023-04-17T09:52:23.850Z,101015.78
2023-04-17T09:54:56.368Z,101020.14
2023-04-17T09:57:28.002Z,101012.75
2023-04-17T10:00:04.318Z,101010.77
2023-04-17T10:02:36.805Z,101012.05
2023-04-17T10:05:11.944Z,101007.39
2023-04-17T10:07:44.008Z,101007.21
2023-04-17T10:10:22.810Z,101001.60
2023-04-17T10:12:56.760Z,100998.95
2023-04-17T10:15:29.905Z,100994.10
2023-04-17T10:18:23.443Z,100986.41
2023-04-17T10:20:56.053Z,100977.34
2023-04-17T10:23:32.564Z,100970.76
2023-04-17T10:26:42.504Z,100969.34
2023-04-17T10:29:14.122Z,100964.00
2023-04-17T10:32:28.960Z,100972.05
2023-04-17T10:35:02.278Z,100964.17
2023-04-17T10:38:00.273Z,100962.44
2023-04-17T10:40:34.083Z,100962.33
2023-04-17T10:43:13.255Z,100961.27
2023-04-17T10:46:03.653Z,100962.80
2023-04-17T10:48:38.908Z,100961.13
2023-04-17T10:51:37.528Z,100953.89
2023-04-17T10:54:10.691Z,100947.61
2023-04-17T10:56:43.752Z,100948.30
2023-04-17T10:59:17.021Z,100948.21
2023-04-17T11:02:05.081Z,100947.31
2023-04-17T11:04:36.759Z,100945.94
2023-04-17T11:07:08.154Z,100952.53
2023-04-17T11:09:41.395Z,100951.42
2023-04-17T11:12:15.923Z,100959.45
2023-04-17T11:14:47.329Z,100957.10
2023-04-17T11:17:22.246Z,100957.48
2023-04-17T11:19:54.020Z,100949.25
2023-04-17T11:22:25.802Z,100948.08
2023-04-17T11:24:56.967Z,100948.64
2023-04-17T11:27:28.733Z,100949.81
2023-04-17T11:30:00.037Z,100944.98
2023-04-17T11:32:38.402Z,100942.52
2023-04-17T11:35:11.203Z,100943.36
2023-04-17T11:38:17.762Z,100951.76
2023-04-17T11:40:51.504Z,100938.98
2023-04-17T11:43:24.201Z,100941.52
2023-04-17T11:45:57.566Z,100936.61
2023-04-17T11:48:32.358Z,100941.37
2023-04-17T11:51:06.049Z,100949.80
2023-04-17T11:53:47.397Z,100952.17
2023-04-17T11:56:20.292Z,100954.20
2023-04-17T11:58:53.469Z,100956.03
2023-04-17T12:01:25.757Z,100952.27
2023-04-17T12:03:58.285Z,100954.50
2023-04-17T12:06:38.702Z,100953.58
2023-04-17T12:09:20.592Z,100952.22
2023-04-17T12:11:53.683Z,100960.31
2023-04-17T12:14:26.451Z,100964.14
2023-04-17T12:16:57.912Z,100976.00
2023-04-17T12:19:29.915Z,100977.69
2023-04-17T12:22:02.142Z,100977.30
2023-04-17T12:24:36.222Z,100986.77
2023-04-17T12:27:07.754Z,100989.14
2023-04-17T12:29:44.360Z,100997.77
2023-04-17T12:32:16.779Z,100994.17
2023-04-17T12:34:48.719Z,100996.21
2023-04-17T12:37:21.668Z,100997.08
2023-04-17T12:39:53.156Z,101000.20
2023-04-17T12:42:24.813Z,101022.98
2023-04-17T12:44:56.358Z,101043.98
2023-04-17T12:47:28.044Z,101044.21
2023-04-17T12:49:59.476Z,101046.98
2023-04-17T12:52:31.116Z,101042.84
2023-04-17T12:55:02.797Z,101041.65
2023-04-17T12:57:34.582Z,101045.73
2023-04-17T13:00:09.539Z,101050.63
2023-04-17T13:02:41.347Z,101049.45
2023-04-17T13:05:12.992Z,101052.61
2023-04-17T13:07:44.546Z,101061.63
2023-04-17T13:10:16.180Z,101069.96
2023-04-17T13:12:47.892Z,101069.77
2023-04-17T13:15:19.859Z,101073.76
2023-04-17T13:17:51.273Z,101076.27
2023-04-17T13:20:22.873Z,101078.55
2023-04-17T13:22:54.043Z,101080.15
2023-04-17T13:25:26.060Z,101083.84
2023-04-17T13:27:57.381Z,101079.81
2023-04-17T13:30:29.338Z,101074.02
2023-04-17T13:33:00.565Z,101073.27
2023-04-17T13:35:32.493Z,101070.92
2023-04-17T13:38:04.485Z,101064.02
2023-04-17T13:40:36.400Z,101065.77
2023-04-17T13:43:07.647Z,101068.86
2023-04-17T13:45:39.105Z,101068.38
2023-04-17T13:48:11.750Z,101065.85
2023-04-17T13:50:43.600Z,101070.06
2023-04-17T13:53:15.093Z,101067.43
2023-04-17T13:55:46.549Z,101063.14
2023-04-17T13:58:17.772Z,101062.45
2023-04-17T14:00:49.132Z,101057.11
2023-04-17T14:03:20.732Z,101051.20
2023-04-17T14:05:51.930Z,101049.31
2023-04-17T14:08:23.881Z,101051.55
2023-04-17T14:10:56.220Z,101048.04
2023-04-17T14:13:27.497Z,101045.67
2023-04-17T14:15:59.596Z,101045.17
2023-04-17T14:18:31.041Z,101043.90
2023-04-17T14:21:02.163Z,101046.76
2023-04-17T14:23:37.278Z,101041.31
2023-04-17T14:26:09.005Z,101039.77
2023-04-17T14:28:41.245Z,101041.36
2023-04-17T14:31:12.848Z,101039.98
2023-04-17T14:33:44.458Z,101037.20
2023-04-17T14:36:16.211Z,101035.14
2023-04-17T14:38:51.336Z,101030.64
2023-04-17T14:41:22.868Z,101030.31
2023-04-17T14:43:54.350Z,101034.84
2023-04-17T14:46:26.326Z,101036.85
2023-04-17T14:48:58.977Z,101043.52
2023-04-17T14:51:30.564Z,101039.77
2023-04-17T14:54:02.327Z,101038.81
2023-04-17T14:56:35.778Z,101038.10
2023-04-17T14:59:07.530Z,101035.60
2023-04-17T15:01:39.725Z,101034.71
2023-04-17T15:04:10.972Z,101030.54
2023-04-17T15:06:43.435Z,101029.60
2023-04-17T15:09:15.883Z,101031.30
2023-04-17T15:11:47.785Z,101031.67
2023-04-17T15:14:19.267Z,101033.16
2023-04-17T15:16:51.037Z,101032.80
2023-04-17T15:19:22.817Z,101023.29
2023-04-17T15:21:54.612Z,101020.13
2023-04-17T15:24:26.158Z,101016.79
2023-04-17T15:26:57.477Z,101019.64
2023-04-17T15:29:28.805Z,101019.54
2023-04-17T15:32:00.795Z,101015.89
2023-04-17T15:34:32.322Z,101020.83
2023-04-17T15:37:03.848Z,101014.59
2023-04-17T15:39:39.729Z,101014.70
2023-04-17T15:42:12.097Z,101011.94
2023-04-17T15:44:43.496Z,101006.22
2023-04-17T15:47:15.092Z,101005.01
2023-04-17T15:49:48.230Z,100998.75
2023-04-17T15:52:19.806Z,101000.17
2023-04-17T15:54:51.210Z,100998.68
2023-04-17T15:57:22.768Z,100998.21
2023-04-17T15:59:54.377Z,100998.08
2023-04-17T16:02:26.100Z,100997.63
2023-04-17T16:04:57.829Z,100996.70
2023-04-17T16:07:29.116Z,100994.21
2023-04-17T16:10:01.213Z,100993.67
2023-04-17T16:12:32.553Z,100991.61
2023-04-17T16:15:06.079Z,100989.86
2023-04-17T16:17:37.606Z,100989.67
2023-04-17T16:20:12.113Z,100988.87
2023-04-17T16:22:44.090Z,100989.13
2023-04-17T16:25:15.750Z,100987.30
2023-04-17T16:27:47.246Z,100986.49
2023-04-17T16:30:19.076Z,100985.42
2023-04-17T16:32:50.575Z,100987.85
2023-04-17T16:35:22.350Z,100985.83
2023-04-17T16:37:54.029Z,100987.99
2023-04-17T16:40:26.735Z,100989.79
2023-04-17T16:42:58.050Z,100991.48
2023-04-17T16:45:29.579Z,100997.11
2023-04-17T16:48:01.165Z,100987.02
2023-04-17T16:50:32.905Z,100989.09
2023-04-17T16:53:04.582Z,100990.40
2023-04-17T16:55:37.466Z,100991.98
2023-04-17T16:58:08.913Z,100992.70
2023-04-17T17:00:40.573Z,100988.83
2023-04-17T17:03:12.569Z,100987.04
2023-04-17T17:05:44.563Z,100990.67
2023-04-17T17:08:17.010Z,100989.36
2023-04-17T17:10:50.486Z,100991.14
2023-04-17T17:13:23.164Z,100990.89
2023-04-17T17:15:54.583Z,100991.08
2023-04-17T17:18:26.291Z,100988.87
2023-04-17T17:21:00.256Z,100986.66
2023-04-17T17:23:32.365Z,100985.13
2023-04-17T17:26:03.988Z,100986.44
2023-04-17T17:28:36.542Z,100987.50
2023-04-17T17:31:09.366Z,100981.45
2023-04-17T17:33:40.944Z,100984.48
2023-04-17T17:36:12.953Z,100988.98
2023-04-17T17:38:44.731Z,100992.02
2023-04-17T17:41:16.401Z,100992.88
2023-04-17T17:43:47.996Z,100994.66
2023-04-17T17:46:19.569Z,100999.96
2023-04-17T17:48:51.354Z,100997.75
2023-04-17T17:51:23.760Z,100997.48
2023-04-17T17:53:56.025Z,100999.14
2023-04-17T17:56:28.410Z,100998.54
2023-04-17T17:59:00.135Z,100999.21
2023-04-17T18:01:31.273Z,100998.42
2023-04-17T18:04:03.035Z,100999.70
2023-04-17T18:06:34.759Z,100998.95
2023-04-17T18:09:06.738Z,100997.09
2023-04-17T18:11:39.598Z,101002.63
2023-04-17T18:14:10.992Z,101003.28
2023-04-17T18:16:43.062Z,101006.48
2023-04-17T18:19:14.091Z,101010.13
2023-04-17T18:21:47.306Z,101009.58
2023-04-17T18:24:19.241Z,101013.77
2023-04-17T18:26:50.310Z,101020.35
2023-04-17T18:29:21.733Z,101021.81
2023-04-17T18:31:54.775Z,101026.12
2023-04-17T18:34:26.192Z,101027.66
2023-04-17T18:37:00.134Z,101030.86
2023-04-17T18:39:31.348Z,101032.88
2023-04-17T18:42:03.017Z,101035.91
2023-04-17T18:44:34.413Z,101037.23
2023-04-17T18:47:05.928Z,101039.95
2023-04-17T18:49:37.567Z,101041.09
2023-04-17T18:52:09.015Z,101041.20
2023-04-17T18:54:40.507Z,101044.30
2023-04-17T18:57:12.116Z,101042.98
2023-04-17T18:59:43.555Z,101041.73
2023-04-17T19:02:14.981Z,101048.73
2023-04-17T19:04:46.491Z,101053.04
2023-04-17T19:07:18.122Z,101054.26
2023-04-17T19:09:49.993Z,101055.91
2023-04-17T19:12:21.457Z,101052.56
2023-04-17T19:14:53.487Z,101056.17
2023-04-17T19:17:25.563Z,101059.17
2023-04-17T19:19:56.913Z,101057.80
2023-04-17T19:22:28.559Z,101060.11
2023-04-17T19:24:59.911Z,101065.16
2023-04-17T19:27:31.668Z,101066.70
2023-04-17T19:30:03.072Z,101065.35
2023-04-17T19:32:34.453Z,101065.35
2023-04-17T19:35:06.315Z,101064.27
2023-04-17T19:37:37.702Z,101067.11
2023-04-17T19:40:21.390Z,101064.00
2023-04-17T19:43:01.261Z,101069.73
2023-04-17T19:45:35.289Z,101071.77
2023-04-17T19:48:07.927Z,101076.36
2023-04-17T19:50:39.225Z,101073.23
2023-04-17T19:53:10.622Z,101065.52
2023-04-17T19:55:42.528Z,101063.02
2023-04-17T19:58:14.404Z,101061.58
2023-04-17T20:00:46.142Z,101058.27
2023-04-17T20:03:17.646Z,101063.54
2023-04-17T20:05:50.099Z,101061.65
2023-04-17T20:08:21.533Z,101062.48
2023-04-17T20:10:53.165Z,101060.45
2023-04-17T20:13:24.570Z,101058.54
2023-04-17T20:15:56.456Z,101060.22
2023-04-17T20:18:27.828Z,101060.72
2023-04-17T20:21:01.281Z,101056.91
2023-04-17T20:23:32.646Z,101057.50
2023-04-17T20:26:03.968Z,101056.77
2023-04-17T20:28:35.205Z,101052.70
2023-04-17T20:31:07.041Z,101048.59
2023-04-17T20:33:39.253Z,101043.99
2023-04-17T20:36:10.938Z,101047.85
2023-04-17T20:38:42.318Z,101050.81
2023-04-17T20:41:13.530Z,101044.83
2023-04-17T20:43:44.776Z,101044.00
2023-04-17T20:46:16.474Z,101045.88
2023-04-17T20:48:49.197Z,101047.40
2023-04-17T20:51:21.148Z,101045.84
2023-04-17T20:53:52.760Z,101045.02
2023-04-17T20:56:24.573Z,101045.84
2023-04-17T20:58:55.985Z,101045.15
2023-04-17T21:01:27.339Z,101046.20
2023-04-17T21:03:58.537Z,101046.20
2023-04-17T21:06:30.887Z,101046.41
2023-04-17T21:09:02.125Z,101044.98
2023-04-17T21:11:33.703Z,101047.53
2023-04-17T21:14:04.766Z,101046.14
2023-04-17T21:16:37.831Z,101045.36
2023-04-17T21:19:09.299Z,101042.91
2023-04-17T21:21:40.575Z,101043.47
2023-04-17T21:24:12.934Z,101048.36
2023-04-17T21:26:45.008Z,101045.58
2023-04-17T21:29:16.528Z,101045.55
2023-04-17T21:31:48.183Z,101047.04
2023-04-17T21:34:19.554Z,101049.52
2023-04-17T21:36:51.292Z,101049.82
2023-04-17T21:39:22.997Z,101048.44
2023-04-17T21:41:54.306Z,101046.69
2023-04-17T21:44:25.577Z,101046.10
2023-04-17T21:46:56.877Z,101046.46
2023-04-17T21:49:28.171Z,101045.59
2023-04-17T21:52:00.235Z,101046.45
2023-04-17T21:54:31.783Z,101041.42
2023-04-17T21:57:04.056Z,101040.98
2023-04-17T21:59:35.622Z,101039.98
2023-04-17T22:02:07.305Z,101036.17
2023-04-17T22:04:38.747Z,101036.51
2023-04-17T22:07:10.150Z,101033.02
2023-04-17T22:09:41.636Z,101033.56
2023-04-17T22:12:17.774Z,101030.01
2023-04-17T22:14:49.402Z,101031.48
2023-04-17T22:17:21.098Z,101038.44
2023-04-17T22:19:52.682Z,101034.63
2023-04-17T22:22:24.010Z,101030.62
2023-04-17T22:24:55.153Z,101035.83
2023-04-17T22:27:26.753Z,101032.76
2023-04-17T22:29:58.288Z,101030.80
2023-04-17T22:32:29.547Z,101030.94
2023-04-17T22:35:01.068Z,101029.88
2023-04-17T22:37:34.243Z,101028.92
2023-04-17T22:40:06.243Z,101026.92
2023-04-17T22:42:37.833Z,101027.45
2023-04-17T22:45:10.875Z,101026.83
2023-04-17T22:47:42.559Z,101027.05
2023-04-17T22:50:14.429Z,101026.84
2023-04-17T22:52:46.039Z,101027.95
2023-04-17T22:55:16.952Z,101028.72
2023-04-17T22:57:48.346Z,101025.31
2023-04-17T23:00:21.438Z,101023.23
2023-04-17T23:02:52.894Z,101024.04
2023-04-17T23:05:24.533Z,101018.63
2023-04-17T23:07:56.063Z,101017.99
2023-04-17T23:10:27.194Z,101015.22
2023-04-17T23:12:58.834Z,101021.59
2023-04-17T23:15:30.293Z,101020.27
2023-04-17T23:18:01.704Z,101024.17
2023-04-17T23:20:33.167Z,101021.80
2023-04-17T23:23:04.341Z,101020.33
2023-04-17T23:25:36.022Z,101025.80
2023-04-17T23:28:07.646Z,101023.97
2023-04-17T23:30:39.343Z,101025.69
2023-04-17T23:33:11.066Z,101028.04
2023-04-17T23:35:42.770Z,101025.73
2023-04-17T23:38:13.900Z,101026.09
2023-04-17T23:40:45.553Z,101022.55
2023-04-17T23:43:16.804Z,101015.00
2023-04-17T23:45:48.585Z,101016.33
2023-04-17T23:48:20.029Z,101017.59
2023-04-17T23:50:51.713Z,101010.79
2023-04-17T23:53:23.140Z,101009.45
2023-04-17T23:55:54.479Z,101006.02
2023-04-17T23:58:25.805Z,101007.91
